Time;durP1;ratioP1;P1;durP2;ratioP2;P2;SDS_P1;SDS_P2;PMS_P1;PMS_P2;Temp;Humidity;BMP_temperature;BMP_pressure;BME280_temperature;BME280_humidity;BME280_pressure;Samples;Min_cycle;Max_cycle;Signal;HPM_P1;HPM_P2
2022/12/19 00:02:41;;;;;;;42.77;18.37;;;-7.10;1.00;;;;;;8285089;28;20566;-68
2022/12/19 00:06:42;;;;;;;45.60;17.03;;;-7.10;1.00;;;;;;8272766;28;20239;-69
2022/12/19 00:10:43;;;;;;;46.57;17.77;;;-7.10;1.00;;;;;;8286002;28;20202;-70
2022/12/19 00:14:44;;;;;;;40.53;17.80;;;-7.10;1.00;;;;;;8275856;28;20193;-69
2022/12/19 00:18:47;;;;;;;51.03;19.23;;;-7.10;1.00;;;;;;8292257;28;20180;-68
2022/12/19 00:22:48;;;;;;;37.73;17.13;;;-7.10;1.00;;;;;;8275910;28;20275;-69
2022/12/19 00:26:49;;;;;;;40.43;16.83;;;-7.10;1.00;;;;;;8282509;28;20235;-68
2022/12/19 00:30:50;;;;;;;40.27;16.67;;;-7.10;1.00;;;;;;8279328;28;20275;-68
2022/12/19 00:34:50;;;;;;;53.30;18.97;;;-7.10;1.00;;;;;;8276698;28;20222;-69
2022/12/19 00:38:53;;;;;;;47.67;19.20;;;-7.00;1.00;;;;;;8283687;28;20193;-69
2022/12/19 00:42:53;;;;;;;70.30;24.17;;;-6.90;1.00;;;;;;8286481;28;20667;-69
2022/12/19 00:46:54;;;;;;;51.63;17.87;;;-7.00;99.90;;;;;;8285752;28;20257;-69
2022/12/19 00:51:17;;;;;;;49.83;19.70;;;-7.00;99.90;;;;;;8273543;28;20189;-69
2022/12/19 00:55:18;;;;;;;64.33;25.80;;;-7.00;1.00;;;;;;8270289;28;20185;-69
2022/12/19 00:59:18;;;;;;;72.20;26.87;;;-7.00;1.00;;;;;;8267055;28;20199;-67
2022/12/19 01:03:19;;;;;;;85.63;28.33;;;-7.00;99.90;;;;;;8273832;28;20227;-69
2022/12/19 01:07:20;;;;;;;68.93;25.77;;;-7.00;99.90;;;;;;8266894;28;20271;-69
2022/12/19 01:15:40;;;;;;;42.60;17.60;;;-7.10;1.00;;;;;;8279211;28;20210;-69
2022/12/19 01:19:41;;;;;;;32.30;15.20;;;-7.10;1.00;;;;;;8296819;28;20201;-69
2022/12/19 01:23:42;;;;;;;33.57;15.57;;;-7.10;1.00;;;;;;8290174;28;20214;-69
2022/12/19 01:27:43;;;;;;;39.37;15.47;;;-7.10;1.00;;;;;;8276511;28;20515;-69
2022/12/19 01:31:43;;;;;;;37.43;16.23;;;-7.10;8.50;;;;;;8279301;28;20196;-69
2022/12/19 01:35:46;;;;;;;32.90;16.27;;;-7.10;84.40;;;;;;8274765;28;20288;-69
2022/12/19 01:39:47;;;;;;;39.67;16.33;;;-7.00;91.00;;;;;;8276762;28;20204;-70
2022/12/19 01:44:06;;;;;;;35.90;15.57;;;-7.00;70.80;;;;;;8276471;28;20245;-69
2022/12/19 01:48:21;;;;;;;49.03;16.73;;;-6.90;65.20;;;;;;8290543;28;20190;-69
2022/12/19 01:52:22;;;;;;;43.90;15.23;;;-6.90;3.70;;;;;;8287862;28;20202;-68
2022/12/19 01:56:35;;;;;;;32.83;14.77;;;-6.90;1.00;;;;;;8285896;28;20197;-70
2022/12/19 02:00:36;;;;;;;38.10;15.03;;;-6.90;24.10;;;;;;8292408;28;20186;-70
2022/12/19 02:04:39;;;;;;;46.07;16.53;;;-6.90;79.50;;;;;;8274405;28;20262;-69
2022/12/19 02:08:42;;;;;;;35.40;14.10;;;-6.80;99.90;;;;;;8289978;28;20219;-67
2022/12/19 02:12:45;;;;;;;32.13;13.37;;;-6.80;99.90;;;;;;8286206;28;20194;-68
2022/12/19 02:17:11;;;;;;;34.27;13.27;;;-6.80;99.90;;;;;;8289953;28;20198;-67
2022/12/19 02:21:20;;;;;;;73.87;24.73;;;-6.80;99.90;;;;;;8292443;28;20515;-66
2022/12/19 02:25:36;;;;;;;90.43;29.23;;;-6.70;99.90;;;;;;8287205;28;20211;-66
2022/12/19 02:30:02;;;;;;;68.40;24.10;;;-6.60;99.90;;;;;;8288810;28;20185;-67
2022/12/19 02:34:30;;;;;;;43.50;17.83;;;-6.40;99.90;;;;;;8286610;28;20224;-68
2022/12/19 02:39:07;;;;;;;35.23;14.53;;;-6.30;99.90;;;;;;8275589;28;20194;-68
2022/12/19 02:43:09;;;;;;;31.10;12.57;;;-6.20;12.10;;;;;;8286112;28;20221;-68
2022/12/19 02:47:11;;;;;;;32.40;13.03;;;-6.10;1.00;;;;;;8287603;28;20273;-68
2022/12/19 02:51:12;;;;;;;28.47;12.60;;;-6.00;1.00;;;;;;8275534;28;20197;-67
2022/12/19 02:55:24;;;;;;;27.00;14.33;;;-5.90;99.90;;;;;;8275774;28;20521;-68
2022/12/19 02:59:37;;;;;;;30.17;12.60;;;-5.90;99.90;;;;;;8271176;28;20201;-68
2022/12/19 03:03:46;;;;;;;22.37;11.30;;;-5.90;99.90;;;;;;8287442;28;20219;-67
2022/12/19 03:07:55;;;;;;;26.27;11.97;;;-5.90;99.90;;;;;;8290455;28;20178;-68
2022/12/19 03:12:05;;;;;;;23.53;11.37;;;-6.00;99.90;;;;;;8284667;28;20209;-67
2022/12/19 03:16:09;;;;;;;28.77;11.27;;;-6.10;99.90;;;;;;8278707;28;20262;-67
2022/12/19 03:20:36;;;;;;;24.20;10.43;;;-6.10;99.90;;;;;;8274186;28;20205;-67
2022/12/19 03:24:37;;;;;;;21.50;11.17;;;-6.20;99.90;;;;;;8288735;28;20430;-68
2022/12/19 03:28:49;;;;;;;27.13;11.13;;;-6.30;99.90;;;;;;8291379;28;20188;-67
2022/12/19 03:32:51;;;;;;;21.50;10.10;;;-6.50;99.90;;;;;;8286553;28;20648;-68
2022/12/19 03:36:56;;;;;;;23.07;10.47;;;-6.70;99.90;;;;;;8272829;28;20209;-67
2022/12/19 03:40:58;;;;;;;21.33;9.80;;;-6.80;99.90;;;;;;8285953;28;20261;-67
2022/12/19 03:45:02;;;;;;;20.00;8.17;;;-7.00;99.90;;;;;;8277309;28;20187;-67
2022/12/19 03:49:03;;;;;;;17.93;8.07;;;-7.10;99.90;;;;;;8280718;28;20193;-68
2022/12/19 03:53:23;;;;;;;20.30;9.30;;;-7.30;99.90;;;;;;8273083;28;20195;-67
2022/12/19 03:57:32;;;;;;;22.73;8.83;;;-7.40;99.90;;;;;;8287511;28;20202;-67
2022/12/19 04:01:35;;;;;;;21.13;9.37;;;-7.40;99.90;;;;;;8274416;28;20263;-68
2022/12/19 04:05:39;;;;;;;19.17;9.50;;;-7.50;99.90;;;;;;8292395;28;20189;-67
2022/12/19 04:09:42;;;;;;;20.03;8.33;;;-7.60;99.90;;;;;;8269768;28;20213;-67
2022/12/19 04:13:49;;;;;;;22.33;8.33;;;-7.70;99.90;;;;;;8273037;28;20322;-67
2022/12/19 04:17:54;;;;;;;26.93;10.63;;;-7.90;99.90;;;;;;8277498;28;20204;-67
2022/12/19 04:22:04;;;;;;;17.90;9.17;;;-7.80;99.90;;;;;;8295875;28;20227;-67
2022/12/19 04:26:07;;;;;;;24.00;10.47;;;-7.80;99.90;;;;;;8281200;28;20199;-67
2022/12/19 04:30:11;;;;;;;21.17;9.43;;;-7.80;1.00;;;;;;8279793;28;20209;-67
2022/12/19 04:34:16;;;;;;;20.60;9.40;;;-7.80;99.90;;;;;;8277873;28;20284;-67
2022/12/19 04:38:20;;;;;;;20.50;8.83;;;-7.90;99.90;;;;;;8273431;28;20188;-66
2022/12/19 04:42:21;;;;;;;25.53;9.30;;;-8.00;1.00;;;;;;8282745;28;20207;-67
2022/12/19 04:46:22;;;;;;;18.10;8.87;;;-8.10;1.00;;;;;;8278684;28;20191;-67
2022/12/19 04:50:22;;;;;;;20.97;8.83;;;-8.10;99.90;;;;;;8294132;28;20187;-68
2022/12/19 04:54:23;;;;;;;24.53;9.30;;;-8.10;67.20;;;;;;8279101;28;20191;-66
2022/12/19 04:58:24;;;;;;;24.40;8.87;;;-8.10;78.90;;;;;;8291904;28;20192;-67
2022/12/19 05:02:25;;;;;;;22.43;9.87;;;-8.10;67.10;;;;;;8274651;28;20502;-66
2022/12/19 05:06:26;;;;;;;21.60;7.40;;;-8.10;48.60;;;;;;8270788;28;20226;-67
2022/12/19 05:10:26;;;;;;;23.10;8.00;;;-8.20;11.00;;;;;;8272361;28;20191;-67
2022/12/19 05:14:27;;;;;;;19.33;8.87;;;-8.30;1.00;;;;;;8289695;28;20279;-66
2022/12/19 05:18:28;;;;;;;16.67;8.10;;;-8.30;1.00;;;;;;8292222;28;20264;-67
2022/12/19 05:22:29;;;;;;;23.10;9.03;;;-8.30;1.00;;;;;;8274121;28;20211;-67
2022/12/19 05:26:30;;;;;;;20.67;8.40;;;-8.40;1.00;;;;;;8271751;28;20222;-67
2022/12/19 05:30:31;;;;;;;21.13;8.60;;;-8.40;1.00;;;;;;8286282;28;20191;-67
2022/12/19 05:34:31;;;;;;;20.07;8.20;;;-8.50;1.00;;;;;;8275658;28;20234;-67
2022/12/19 05:38:32;;;;;;;17.97;7.80;;;-8.50;1.00;;;;;;8272918;28;20191;-67
2022/12/19 05:42:33;;;;;;;24.83;9.83;;;-8.60;1.00;;;;;;8289176;28;20235;-67
2022/12/19 05:46:34;;;;;;;35.70;11.43;;;-8.70;1.00;;;;;;8267540;28;20263;-66
2022/12/19 05:50:35;;;;;;;32.33;12.33;;;-8.70;1.00;;;;;;8278206;28;20194;-67
2022/12/19 05:54:36;;;;;;;26.43;9.33;;;-8.80;1.00;;;;;;8292269;28;20199;-68
2022/12/19 05:58:38;;;;;;;21.40;9.83;;;-8.80;1.00;;;;;;8282061;28;20312;-67
2022/12/19 06:02:38;;;;;;;24.80;9.93;;;-8.90;1.00;;;;;;8286209;28;20297;-67
2022/12/19 06:06:39;;;;;;;29.77;10.03;;;-8.90;1.00;;;;;;8270791;28;20187;-67
2022/12/19 06:10:40;;;;;;;25.67;9.93;;;-8.90;1.00;;;;;;8289209;28;20862;-67
2022/12/19 06:14:41;;;;;;;23.70;9.37;;;-8.90;1.00;;;;;;8272244;28;20224;-67
2022/12/19 06:18:43;;;;;;;21.27;9.33;;;-8.90;1.00;;;;;;8270215;28;20201;-67
2022/12/19 06:22:44;;;;;;;29.13;9.27;;;-9.00;1.00;;;;;;8273304;28;20225;-68
2022/12/19 06:26:45;;;;;;;22.97;8.90;;;-9.00;1.00;;;;;;8275393;28;20214;-67
2022/12/19 06:30:45;;;;;;;21.03;9.30;;;-9.10;99.90;;;;;;8286123;28;20190;-68
2022/12/19 06:34:46;;;;;;;19.20;7.47;;;-9.20;99.90;;;;;;8271566;28;20270;-67
2022/12/19 06:38:49;;;;;;;30.00;11.70;;;-9.20;99.90;;;;;;8267219;28;20226;-67
2022/12/19 06:42:50;;;;;;;24.50;10.23;;;-9.30;99.90;;;;;;8280762;28;20235;-67
2022/12/19 06:46:53;;;;;;;26.50;9.40;;;-9.30;99.90;;;;;;8265742;28;20221;-67
2022/12/19 06:50:54;;;;;;;18.63;8.37;;;-9.30;99.90;;;;;;8267544;28;20283;-67
2022/12/19 06:54:55;;;;;;;21.67;9.30;;;-9.40;99.90;;;;;;8268820;28;20687;-67
2022/12/19 06:58:56;;;;;;;30.60;11.40;;;-9.40;99.90;;;;;;8270554;28;20566;-67
2022/12/19 07:02:58;;;;;;;29.13;10.07;;;-9.40;99.90;;;;;;8263575;28;20219;-67
2022/12/19 07:07:00;;;;;;;32.97;11.33;;;-9.40;99.90;;;;;;8279803;28;20192;-67
2022/12/19 07:11:00;;;;;;;30.70;12.70;;;-9.40;99.90;;;;;;8267315;28;20199;-67
2022/12/19 07:15:01;;;;;;;22.23;10.13;;;-9.30;99.90;;;;;;8266335;28;20262;-67
2022/12/19 07:19:03;;;;;;;23.00;8.30;;;-9.30;99.90;;;;;;8286220;28;20305;-69
2022/12/19 07:23:05;;;;;;;39.90;11.47;;;-9.30;99.90;;;;;;8272334;28;20215;-68
2022/12/19 07:27:06;;;;;;;24.63;9.47;;;-9.20;99.90;;;;;;8287822;28;20193;-67
2022/12/19 07:31:07;;;;;;;22.93;7.60;;;-9.10;99.90;;;;;;8274936;28;20517;-67
2022/12/19 07:35:08;;;;;;;20.87;8.50;;;-9.10;99.90;;;;;;8276623;28;20313;-67
2022/12/19 07:39:09;;;;;;;19.07;8.33;;;-9.00;99.90;;;;;;8275065;28;20186;-67
2022/12/19 07:43:10;;;;;;;23.80;10.13;;;-8.70;99.90;;;;;;8271328;28;20207;-67
2022/12/19 07:47:11;;;;;;;26.03;10.70;;;-8.30;99.90;;;;;;8270781;28;20178;-68
2022/12/19 07:51:11;;;;;;;32.87;12.30;;;-7.90;99.90;;;;;;8268272;28;20183;-67
2022/12/19 07:55:12;;;;;;;29.67;13.60;;;-7.60;99.90;;;;;;8291864;28;20219;-67
2022/12/19 07:59:13;;;;;;;28.03;13.07;;;-7.50;99.90;;;;;;8272209;28;20179;-67
2022/12/19 08:03:14;;;;;;;24.20;11.40;;;-7.30;99.90;;;;;;8272204;28;20248;-67
2022/12/19 08:07:14;;;;;;;27.73;12.43;;;-7.00;99.90;;;;;;8267038;28;20237;-67
2022/12/19 08:11:21;;;;;;;25.63;11.97;;;-6.80;99.90;;;;;;8287414;28;20190;-68
2022/12/19 08:15:21;;;;;;;31.90;12.93;;;-6.60;99.90;;;;;;8275051;28;20183;-68
2022/12/19 08:19:22;;;;;;;56.13;19.17;;;-6.50;99.90;;;;;;8273436;28;20187;-68
2022/12/19 08:23:23;;;;;;;59.23;23.27;;;-6.50;99.90;;;;;;8268806;28;20223;-67
2022/12/19 08:27:25;;;;;;;34.27;13.67;;;-6.50;99.90;;;;;;8285429;28;20205;-67
2022/12/19 08:31:27;;;;;;;34.93;13.23;;;-6.50;99.90;;;;;;8277671;28;20198;-67
2022/12/19 08:35:28;;;;;;;26.93;12.13;;;-6.50;99.90;;;;;;8276019;28;20303;-67
2022/12/19 08:39:29;;;;;;;31.97;15.00;;;-6.40;99.90;;;;;;8276337;28;20223;-67
2022/12/19 08:43:30;;;;;;;37.83;14.30;;;-6.20;99.90;;;;;;8292211;28;20220;-68
2022/12/19 08:47:31;;;;;;;56.07;23.23;;;-6.00;99.90;;;;;;8280368;28;20254;-67
2022/12/19 08:51:32;;;;;;;67.20;30.20;;;-5.80;99.90;;;;;;8279495;28;20199;-67
2022/12/19 08:55:34;;;;;;;44.53;21.70;;;-5.60;99.90;;;;;;8278971;28;20196;-67
2022/12/19 08:59:35;;;;;;;59.10;23.87;;;-5.50;97.30;;;;;;8275063;28;20206;-68
2022/12/19 09:03:36;;;;;;;56.57;22.60;;;-5.50;8.40;;;;;;8277291;28;20218;-68
2022/12/19 09:07:38;;;;;;;71.90;26.77;;;-5.40;1.00;;;;;;8271260;28;20183;-68
2022/12/19 09:11:39;;;;;;;80.20;30.07;;;-5.10;99.90;;;;;;8276826;28;20183;-68
2022/12/19 09:15:40;;;;;;;54.20;21.10;;;-4.80;99.90;;;;;;8276754;28;20188;-68
2022/12/19 09:19:41;;;;;;;38.27;17.97;;;-4.50;96.00;;;;;;8291378;28;20217;-68
2022/12/19 09:23:46;;;;;;;26.97;15.27;;;-4.40;1.00;;;;;;8287823;28;20212;-68
2022/12/19 09:27:47;;;;;;;37.73;18.80;;;-4.30;30.00;;;;;;8276882;28;20190;-69
2022/12/19 09:31:49;;;;;;;35.03;17.37;;;-4.10;5.70;;;;;;8273605;28;20218;-69
2022/12/19 09:35:54;;;;;;;56.37;27.40;;;-3.90;1.00;;;;;;8274176;28;20198;-69
2022/12/19 09:39:55;;;;;;;52.90;25.40;;;-3.80;1.00;;;;;;8292220;28;20231;-69
2022/12/19 09:44:20;;;;;;;55.70;26.13;;;-3.60;1.00;;;;;;8295226;28;20249;-71
2022/12/19 09:48:23;;;;;;;49.80;24.33;;;-3.30;1.00;;;;;;8292217;28;20188;-70
2022/12/19 09:52:41;;;;;;;43.40;23.20;;;-3.00;1.00;;;;;;8269147;28;20472;-69
2022/12/19 09:56:43;;;;;;;49.33;22.40;;;-2.70;1.00;;;;;;8287186;28;20185;-70
2022/12/19 10:00:50;;;;;;;54.27;23.97;;;-2.50;1.00;;;;;;8269361;28;20192;-69
2022/12/19 10:05:14;;;;;;;41.47;21.27;;;-2.20;1.00;;;;;;8287312;28;20221;-70
2022/12/19 10:09:20;;;;;;;49.37;23.57;;;-2.00;1.00;;;;;;8276570;28;20258;-69
2022/12/19 10:13:24;;;;;;;53.03;27.13;;;-1.80;99.90;;;;;;8282158;28;20294;-69
2022/12/19 10:18:00;;;;;;;70.57;33.47;;;-1.60;99.90;;;;;;8283587;28;20202;-69
2022/12/19 10:22:23;;;;;;;114.73;54.13;;;-1.50;99.90;;;;;;8270149;28;20282;-69
2022/12/19 10:26:46;;;;;;;140.60;63.37;;;-1.70;99.90;;;;;;8269694;28;20220;-69
2022/12/19 10:30:57;;;;;;;123.83;58.07;;;-1.40;99.90;;;;;;8288120;28;20181;-69
2022/12/19 10:34:58;;;;;;;123.63;59.47;;;-1.00;99.90;;;;;;8281382;28;20219;-69
2022/12/19 10:39:16;;;;;;;206.47;100.07;;;-0.60;99.90;;;;;;8287624;28;20198;-70
2022/12/19 10:43:55;;;;;;;278.03;126.23;;;-0.50;99.90;;;;;;8291803;28;20239;-70
2022/12/19 10:47:57;;;;;;;346.33;160.53;;;-0.70;99.90;;;;;;8276952;28;20206;-69
2022/12/19 10:51:59;;;;;;;404.80;190.90;;;-0.80;99.90;;;;;;8270370;28;20258;-69
2022/12/19 10:56:11;;;;;;;335.83;160.97;;;-0.60;99.90;;;;;;8275540;28;20218;-71
2022/12/19 11:00:17;;;;;;;282.60;130.80;;;-0.20;99.90;;;;;;8291500;28;20191;-69
2022/12/19 11:04:32;;;;;;;158.13;77.80;;;0.10;99.90;;;;;;8272786;28;20218;-71
2022/12/19 11:08:35;;;;;;;112.57;55.33;;;0.40;99.90;;;;;;8274755;28;20237;-70
2022/12/19 11:12:36;;;;;;;183.90;93.43;;;0.70;99.90;;;;;;8270709;28;20187;-70
2022/12/19 11:16:37;;;;;;;124.87;58.57;;;0.90;99.90;;;;;;8273769;28;20202;-70
2022/12/19 11:20:38;;;;;;;66.50;33.07;;;1.20;99.90;;;;;;8288488;28;20199;-69
2022/12/19 11:24:52;;;;;;;43.50;24.73;;;1.60;99.90;;;;;;8270905;28;20279;-69
2022/12/19 11:28:54;;;;;;;44.10;24.27;;;1.90;99.90;;;;;;8270622;28;20562;-70
2022/12/19 11:33:13;;;;;;;40.80;22.40;;;2.10;99.90;;;;;;8271000;28;20313;-70
2022/12/19 11:37:20;;;;;;;44.10;23.60;;;2.30;95.40;;;;;;8275270;28;20196;-70
2022/12/19 11:41:32;;;;;;;42.77;24.60;;;2.50;85.60;;;;;;8286656;28;20201;-70
2022/12/19 11:45:53;;;;;;;44.90;24.93;;;2.80;67.40;;;;;;8288141;28;20189;-70
2022/12/19 11:50:01;;;;;;;43.77;22.77;;;3.10;43.90;;;;;;8288801;28;20199;-71
2022/12/19 11:54:17;;;;;;;67.07;34.63;;;3.40;52.00;;;;;;8275291;28;20187;-70
2022/12/19 11:58:18;;;;;;;42.20;23.10;;;3.40;16.00;;;;;;8272979;28;20274;-70
2022/12/19 12:02:36;;;;;;;35.13;19.80;;;3.50;10.10;;;;;;8293322;28;20219;-70
2022/12/19 12:06:44;;;;;;;34.80;19.23;;;3.50;5.60;;;;;;8298256;28;20293;-70
2022/12/19 12:10:59;;;;;;;34.67;19.57;;;3.60;1.50;;;;;;8281086;28;20188;-72
2022/12/19 12:15:18;;;;;;;32.60;18.43;;;3.80;1.30;;;;;;8296575;28;20203;-70
2022/12/19 12:19:49;;;;;;;28.83;17.73;;;4.00;1.00;;;;;;8297943;28;20382;-71
2022/12/19 12:24:12;;;;;;;35.10;18.90;;;4.10;1.00;;;;;;8295320;28;20247;-70
2022/12/19 12:28:43;;;;;;;29.83;17.53;;;4.20;1.00;;;;;;8295663;28;20199;-71
2022/12/19 12:32:59;;;;;;;30.23;18.27;;;4.20;1.00;;;;;;8283696;28;20272;-70
2022/12/19 12:36:59;;;;;;;32.17;20.10;;;4.20;1.00;;;;;;8278723;28;20421;-71
2022/12/19 12:41:18;;;;;;;38.53;21.17;;;4.10;1.00;;;;;;8287772;28;20191;-70
2022/12/19 12:45:34;;;;;;;33.53;19.93;;;3.90;1.00;;;;;;8295700;28;20193;-70
2022/12/19 12:49:45;;;;;;;41.57;22.50;;;3.80;1.00;;;;;;8274917;28;20195;-71
2022/12/19 12:53:48;;;;;;;40.50;22.83;;;3.50;1.00;;;;;;8277910;28;20210;-71
2022/12/19 12:57:49;;;;;;;36.30;19.90;;;3.50;1.00;;;;;;8293224;28;20188;-71
2022/12/19 13:01:56;;;;;;;30.90;19.13;;;3.50;1.00;;;;;;8294790;28;20298;-70
2022/12/19 13:06:25;;;;;;;33.27;18.93;;;3.40;1.00;;;;;;8275633;28;20191;-70
2022/12/19 13:10:30;;;;;;;35.03;18.80;;;3.50;1.00;;;;;;8273486;28;20442;-70
2022/12/19 13:14:34;;;;;;;33.07;18.77;;;3.40;1.60;;;;;;8273874;28;20202;-70
2022/12/19 13:18:38;;;;;;;35.97;19.87;;;3.40;4.10;;;;;;8273597;28;20222;-70
2022/12/19 13:22:42;;;;;;;29.27;17.73;;;3.40;4.90;;;;;;8276049;28;20223;-70
2022/12/19 13:26:48;;;;;;;32.07;17.93;;;3.40;6.70;;;;;;8288539;28;21328;-70
2022/12/19 13:31:01;;;;;;;35.93;20.53;;;3.40;8.50;;;;;;8286860;28;20188;-70
2022/12/19 13:35:04;;;;;;;40.57;21.30;;;3.30;10.00;;;;;;8287427;28;20238;-70
2022/12/19 13:39:19;;;;;;;39.40;21.83;;;3.40;10.40;;;;;;8289121;28;20219;-71
2022/12/19 13:47:45;;;;;;;49.70;25.30;;;3.20;6.20;;;;;;8274237;28;20249;-71
2022/12/19 13:51:47;;;;;;;49.17;27.60;;;3.00;7.30;;;;;;8286905;28;20191;-71
2022/12/19 13:55:48;;;;;;;45.23;26.57;;;2.90;10.50;;;;;;8277696;28;20187;-70
2022/12/19 13:59:52;;;;;;;43.07;25.00;;;2.80;12.90;;;;;;8292625;28;20207;-70
2022/12/19 14:03:55;;;;;;;41.47;23.97;;;2.70;15.50;;;;;;8291220;28;20226;-71
2022/12/19 14:07:57;;;;;;;37.20;23.33;;;2.60;17.40;;;;;;8278149;28;20186;-70
2022/12/19 14:12:01;;;;;;;36.73;22.03;;;2.50;20.00;;;;;;8276170;28;20195;-71
2022/12/19 14:16:02;;;;;;;37.37;20.17;;;2.50;23.10;;;;;;8274673;28;20194;-70
2022/12/19 14:20:21;;;;;;;33.80;19.80;;;2.40;27.00;;;;;;8285800;28;20202;-70
2022/12/19 14:24:23;;;;;;;31.93;18.53;;;2.40;30.80;;;;;;8273830;28;20235;-71
2022/12/19 14:28:50;;;;;;;30.53;17.93;;;2.40;28.10;;;;;;8286305;28;20196;-71
2022/12/19 14:32:52;;;;;;;30.43;17.97;;;2.40;28.70;;;;;;8261476;28;20233;-71
2022/12/19 14:36:55;;;;;;;28.70;17.03;;;2.40;30.50;;;;;;8293426;28;20636;-71
2022/12/19 14:40:57;;;;;;;27.67;16.50;;;2.40;32.40;;;;;;8288573;28;20198;-71
2022/12/19 14:44:58;;;;;;;28.23;18.03;;;2.30;38.50;;;;;;8272114;28;20212;-71
2022/12/19 14:49:02;;;;;;;33.57;19.57;;;2.30;47.50;;;;;;8273862;28;20204;-71
2022/12/19 14:53:07;;;;;;;31.87;19.30;;;2.20;51.10;;;;;;8275191;28;20202;-70
2022/12/19 14:57:19;;;;;;;34.40;19.87;;;2.20;61.10;;;;;;8288135;28;20209;-71
2022/12/19 15:01:27;;;;;;;33.37;19.43;;;2.10;70.80;;;;;;8290873;28;20211;-72
2022/12/19 15:05:28;;;;;;;36.93;21.00;;;2.10;92.50;;;;;;8277315;28;20187;-71
2022/12/19 15:09:36;;;;;;;37.63;21.50;;;2.00;98.40;;;;;;8288827;28;20191;-71
2022/12/19 15:13:37;;;;;;;37.53;19.50;;;2.00;99.90;;;;;;8291949;28;20187;-70
2022/12/19 15:17:45;;;;;;;33.53;19.63;;;1.90;99.90;;;;;;8273910;28;20282;-70
2022/12/19 15:21:45;;;;;;;39.07;20.73;;;2.00;99.90;;;;;;8270110;28;20234;-71
2022/12/19 15:25:47;;;;;;;35.50;21.03;;;2.00;99.90;;;;;;8273092;28;20403;-71
2022/12/19 15:29:48;;;;;;;52.73;27.60;;;2.00;99.90;;;;;;8272960;28;20190;-70
2022/12/19 15:33:49;;;;;;;47.63;24.87;;;2.00;99.90;;;;;;8289703;28;20279;-70
2022/12/19 15:37:49;;;;;;;49.57;25.10;;;2.00;99.90;;;;;;8272014;28;20236;-71
2022/12/19 15:41:53;;;;;;;67.87;34.57;;;2.00;99.90;;;;;;8272864;28;20235;-71
2022/12/19 15:45:58;;;;;;;65.87;31.87;;;1.90;99.90;;;;;;8290003;28;20197;-70
2022/12/19 15:50:05;;;;;;;58.57;29.97;;;1.90;99.90;;;;;;8285807;28;20193;-70
2022/12/19 15:54:06;;;;;;;55.73;30.73;;;1.90;99.90;;;;;;8270781;28;20199;-71
2022/12/19 15:58:08;;;;;;;42.87;26.57;;;1.90;99.90;;;;;;8269378;28;20189;-70
2022/12/19 16:02:20;;;;;;;67.33;34.07;;;1.90;99.90;;;;;;8273693;28;20210;-70
2022/12/19 16:06:21;;;;;;;141.10;57.17;;;1.90;99.90;;;;;;8285192;28;20203;-70
2022/12/19 16:10:22;;;;;;;107.90;49.93;;;1.90;99.90;;;;;;8269828;28;20191;-71
2022/12/19 16:14:27;;;;;;;70.43;35.77;;;1.90;99.90;;;;;;8270246;28;20283;-71
2022/12/19 16:18:27;;;;;;;50.33;30.07;;;1.90;99.90;;;;;;8286052;28;20263;-70
2022/12/19 16:22:28;;;;;;;46.63;26.67;;;2.00;99.90;;;;;;8275695;28;20273;-71
2022/12/19 16:26:36;;;;;;;40.33;23.50;;;2.00;99.90;;;;;;8285724;28;20261;-71
2022/12/19 16:30:39;;;;;;;41.07;23.17;;;2.10;99.90;;;;;;8285892;28;20636;-70
2022/12/19 16:34:40;;;;;;;38.37;21.23;;;2.10;99.90;;;;;;8276658;28;20237;-70
2022/12/19 16:38:40;;;;;;;35.17;20.80;;;2.20;99.90;;;;;;8271476;28;20195;-70
2022/12/19 16:42:43;;;;;;;37.60;22.33;;;2.30;99.90;;;;;;8269042;28;20218;-71
2022/12/19 16:46:44;;;;;;;40.43;22.37;;;2.30;99.90;;;;;;8271092;28;20198;-71
2022/12/19 16:50:46;;;;;;;41.63;22.00;;;2.30;99.90;;;;;;8288319;28;20215;-71
2022/12/19 16:54:48;;;;;;;35.23;21.70;;;2.30;99.90;;;;;;8290038;28;20188;-70
2022/12/19 16:58:49;;;;;;;36.50;21.63;;;2.20;99.90;;;;;;8273943;28;20234;-71
2022/12/19 17:02:57;;;;;;;57.00;28.97;;;2.30;99.90;;;;;;8271720;28;20215;-70
2022/12/19 17:06:59;;;;;;;57.93;28.93;;;2.20;99.90;;;;;;8272033;28;20191;-70
2022/12/19 17:10:59;;;;;;;46.97;28.77;;;2.20;99.90;;;;;;8288958;28;20302;-69
2022/12/19 17:15:02;;;;;;;39.13;26.67;;;2.20;99.90;;;;;;8270622;28;20199;-69
2022/12/19 17:19:03;;;;;;;33.23;20.80;;;2.20;99.90;;;;;;8289100;28;20214;-69
2022/12/19 17:23:16;;;;;;;30.37;19.23;;;2.10;99.90;;;;;;8273599;28;20215;-69
2022/12/19 17:27:18;;;;;;;30.50;19.53;;;2.10;99.90;;;;;;8290276;28;20247;-69
2022/12/19 17:31:18;;;;;;;29.00;17.87;;;2.00;1.00;;;;;;8277870;28;20187;-69
2022/12/19 17:35:23;;;;;;;35.17;19.27;;;2.00;99.90;;;;;;8291032;28;20314;-69
2022/12/19 17:39:27;;;;;;;27.93;17.57;;;1.90;99.90;;;;;;8291588;28;20195;-70
2022/12/19 17:43:28;;;;;;;32.20;18.60;;;1.90;1.00;;;;;;8277103;28;20326;-69
2022/12/19 17:47:29;;;;;;;30.27;18.13;;;1.90;1.00;;;;;;8292793;28;20191;-69
2022/12/19 17:51:30;;;;;;;27.57;17.23;;;1.90;1.00;;;;;;8273230;28;20191;-69
2022/12/19 17:55:32;;;;;;;30.70;17.43;;;1.90;1.00;;;;;;8274641;28;20182;-69
2022/12/19 17:59:34;;;;;;;32.10;19.17;;;2.00;1.00;;;;;;8271132;28;20187;-69
2022/12/19 18:03:35;;;;;;;27.53;17.13;;;2.00;1.00;;;;;;8273429;28;20241;-69
2022/12/19 18:07:36;;;;;;;33.33;19.33;;;1.90;1.00;;;;;;8272584;28;20425;-69
2022/12/19 18:11:37;;;;;;;31.60;18.20;;;2.00;1.00;;;;;;8286207;28;20430;-69
2022/12/19 18:15:38;;;;;;;29.00;18.23;;;1.90;1.00;;;;;;8272308;28;20257;-69
2022/12/19 18:19:39;;;;;;;31.03;18.93;;;1.90;1.00;;;;;;8275445;28;20206;-69
2022/12/19 18:23:41;;;;;;;30.63;18.13;;;1.90;1.00;;;;;;8276226;28;20214;-69
2022/12/19 18:27:44;;;;;;;31.00;18.67;;;1.90;99.90;;;;;;8275650;28;20185;-69
2022/12/19 18:31:45;;;;;;;32.50;19.33;;;1.90;95.80;;;;;;8279750;28;20205;-69
2022/12/19 18:35:48;;;;;;;33.70;19.20;;;1.90;99.90;;;;;;8288570;28;20275;-69
2022/12/19 18:39:54;;;;;;;31.43;19.33;;;2.00;99.90;;;;;;8288681;28;20230;-69
2022/12/19 18:43:55;;;;;;;34.00;20.87;;;2.00;99.90;;;;;;8287998;28;20215;-69
2022/12/19 18:47:58;;;;;;;38.03;21.60;;;2.00;99.90;;;;;;8274399;28;20246;-69
2022/12/19 18:51:59;;;;;;;38.63;22.60;;;1.90;99.90;;;;;;8272079;28;20554;-69
2022/12/19 18:56:02;;;;;;;32.83;20.53;;;1.90;99.90;;;;;;8289210;28;20191;-69
2022/12/19 19:00:03;;;;;;;31.70;19.03;;;1.80;99.90;;;;;;8274073;28;20199;-69
2022/12/19 19:04:04;;;;;;;38.07;21.97;;;1.90;99.90;;;;;;8283776;28;21453;-69
2022/12/19 19:08:26;;;;;;;48.37;25.47;;;1.90;99.90;;;;;;8273072;28;20175;-69
2022/12/19 19:12:27;;;;;;;40.57;22.27;;;1.90;1.00;;;;;;8285719;28;20267;-69
2022/12/19 19:16:29;;;;;;;38.87;22.50;;;2.00;1.00;;;;;;8270400;28;20345;-69
2022/12/19 19:20:35;;;;;;;37.43;21.87;;;2.00;1.00;;;;;;8274323;28;21401;-69
2022/12/19 19:24:35;;;;;;;30.23;19.50;;;2.00;1.00;;;;;;8290982;28;20215;-69
2022/12/19 19:28:38;;;;;;;32.63;19.93;;;2.00;1.00;;;;;;8271491;28;20187;-69
2022/12/19 19:32:44;;;;;;;31.30;20.07;;;2.10;1.00;;;;;;8279370;28;20402;-69
2022/12/19 19:36:48;;;;;;;36.83;21.27;;;2.20;1.00;;;;;;8271017;28;20260;-69
2022/12/19 19:40:49;;;;;;;35.73;22.43;;;2.20;1.00;;;;;;8274044;28;20191;-69
2022/12/19 19:44:50;;;;;;;45.57;26.07;;;2.30;1.00;;;;;;8288131;28;20241;-69
2022/12/19 19:48:51;;;;;;;43.57;26.73;;;2.30;1.00;;;;;;8271377;28;20198;-69
2022/12/19 19:52:52;;;;;;;41.67;25.03;;;2.30;1.00;;;;;;8273296;28;20191;-69
2022/12/19 19:56:54;;;;;;;45.63;27.13;;;2.30;1.00;;;;;;8277273;28;20201;-69
2022/12/19 20:00:55;;;;;;;43.40;25.47;;;2.40;1.00;;;;;;8268557;28;20195;-69
2022/12/19 20:04:56;;;;;;;38.57;25.20;;;2.40;1.00;;;;;;8271672;28;20277;-69
2022/12/19 20:08:57;;;;;;;37.30;23.53;;;2.40;1.00;;;;;;8287084;28;20191;-69
2022/12/19 20:12:58;;;;;;;32.20;21.37;;;2.50;1.00;;;;;;8274734;28;20577;-69
2022/12/19 20:16:59;;;;;;;34.40;22.00;;;2.50;1.00;;;;;;8263397;28;20238;-69
2022/12/19 20:21:00;;;;;;;36.30;20.50;;;2.50;1.00;;;;;;8271537;28;20191;-69
2022/12/19 20:25:01;;;;;;;34.20;19.57;;;2.60;1.00;;;;;;8256906;28;20268;-68
2022/12/19 20:29:05;;;;;;;27.77;18.03;;;2.60;1.00;;;;;;8261977;28;20195;-68
2022/12/19 20:33:06;;;;;;;28.07;16.70;;;2.60;1.00;;;;;;8272127;28;20215;-68
2022/12/19 20:37:07;;;;;;;25.13;14.83;;;2.60;1.00;;;;;;8276571;28;20277;-70
2022/12/19 20:41:08;;;;;;;28.17;15.60;;;2.60;1.00;;;;;;8271399;28;20466;-69
2022/12/19 20:45:09;;;;;;;25.83;15.87;;;2.70;1.00;;;;;;8255139;28;20219;-68
2022/12/19 20:49:11;;;;;;;26.80;16.87;;;2.70;1.00;;;;;;8274865;28;20238;-68
2022/12/19 20:53:11;;;;;;;26.87;17.03;;;2.80;1.00;;;;;;8257009;28;20192;-69
2022/12/19 20:57:12;;;;;;;32.50;17.63;;;2.80;1.00;;;;;;8274184;28;20201;-68
2022/12/19 21:01:16;;;;;;;23.63;16.57;;;2.80;20.30;;;;;;8270880;28;20192;-68
2022/12/19 21:05:19;;;;;;;23.13;15.00;;;2.80;81.00;;;;;;8266757;28;20222;-68